createdAt,value
2023-02-04T00:00:17.221Z,21.88
2023-02-04T00:02:46.747Z,16.75
2023-02-04T00:05:17.539Z,16.48
2023-02-04T00:07:46.096Z,18.70
2023-02-04T00:10:16.161Z,13.57
2023-02-04T00:12:45.859Z,15.07
2023-02-04T00:15:14.245Z,16.20
2023-02-04T00:17:42.679Z,13.40
2023-02-04T00:20:13.096Z,14.98
2023-02-04T00:22:41.498Z,14.65
2023-02-04T00:25:10.579Z,17.50
2023-02-04T00:27:40.420Z,15.15
2023-02-04T00:30:11.254Z,14.57
2023-02-04T00:35:09.477Z,13.95
2023-02-04T00:37:38.047Z,15.90
2023-02-04T00:40:07.667Z,13.18
2023-02-04T00:42:36.651Z,12.38
2023-02-04T00:45:07.183Z,13.15
2023-02-04T00:47:36.145Z,14.23
2023-02-04T00:50:04.626Z,10.15
2023-02-04T00:52:33.245Z,14.25
2023-02-04T00:55:01.677Z,12.27
2023-02-04T00:57:30.106Z,12.23
2023-02-04T00:59:59.522Z,10.25
2023-02-04T01:02:31.129Z,8.35
2023-02-04T01:04:59.614Z,11.32
2023-02-04T01:07:29.172Z,10.25
2023-02-04T01:09:58.340Z,9.65
2023-02-04T01:12:28.897Z,9.63
2023-02-04T01:14:57.748Z,9.43
2023-02-04T01:17:26.699Z,9.35
2023-02-04T01:19:56.612Z,10.63
2023-02-04T01:22:25.241Z,9.02
2023-02-04T01:24:54.530Z,8.77
2023-02-04T01:27:47.325Z,9.32
2023-02-04T01:30:17.430Z,8.75
2023-02-04T01:32:46.113Z,8.70
2023-02-04T01:35:17.179Z,7.45
2023-02-04T01:37:45.846Z,5.82
2023-02-04T01:40:16.624Z,7.70
2023-02-04T01:42:45.620Z,9.02
2023-02-04T01:45:14.704Z,10.85
2023-02-04T01:47:44.042Z,9.75
2023-02-04T01:50:14.641Z,9.52
2023-02-04T01:52:47.488Z,8.73
2023-02-04T01:55:18.563Z,9.88
2023-02-04T01:57:48.544Z,7.35
2023-02-04T02:00:23.503Z,7.35
2023-02-04T02:02:53.364Z,9.18
2023-02-04T02:05:24.760Z,6.95
2023-02-04T02:07:58.473Z,6.72
2023-02-04T02:10:28.296Z,7.30
2023-02-04T02:12:57.611Z,10.90
2023-02-04T02:15:27.125Z,7.05
2023-02-04T02:17:56.961Z,8.55
2023-02-04T02:20:26.837Z,7.68
2023-02-04T02:23:07.507Z,8.90
2023-02-04T02:25:37.879Z,8.70
2023-02-04T02:28:12.739Z,6.57
2023-02-04T02:30:42.699Z,8.10
2023-02-04T02:33:14.910Z,8.93
2023-02-04T02:35:48.456Z,7.03
2023-02-04T02:38:19.165Z,8.00
2023-02-04T02:43:24.003Z,7.85
2023-02-04T02:45:53.196Z,8.23
2023-02-04T02:48:21.966Z,6.95
2023-02-04T02:50:51.131Z,7.57
2023-02-04T02:53:21.956Z,7.70
2023-02-04T02:55:53.305Z,7.15
2023-02-04T02:58:29.754Z,7.68
2023-02-04T03:00:59.183Z,7.85
2023-02-04T03:03:31.607Z,8.15
2023-02-04T03:06:03.248Z,8.25
2023-02-04T03:08:33.856Z,7.88
2023-02-04T03:11:03.727Z,7.97
2023-02-04T03:13:34.027Z,8.50
2023-02-04T03:16:02.748Z,7.60
2023-02-04T03:18:32.005Z,8.52
2023-02-04T03:21:00.434Z,9.77
2023-02-04T03:23:29.096Z,7.60
2023-02-04T03:25:57.925Z,9.93
2023-02-04T03:28:28.528Z,7.18
2023-02-04T03:30:56.921Z,7.47
2023-02-04T03:33:26.426Z,9.55
2023-02-04T03:35:55.901Z,6.93
2023-02-04T03:38:24.112Z,8.65
2023-02-04T03:40:52.379Z,9.27
2023-02-04T03:43:20.538Z,8.07
2023-02-04T03:45:50.699Z,5.93
2023-02-04T03:48:18.966Z,9.57
2023-02-04T03:50:47.832Z,9.52
2023-02-04T03:53:16.332Z,10.88
2023-02-04T03:55:44.584Z,6.95
2023-02-04T03:58:13.022Z,8.52
2023-02-04T04:00:42.008Z,6.20
2023-02-04T04:03:11.869Z,6.90
2023-02-04T04:05:40.257Z,5.03
2023-02-04T04:08:08.610Z,8.25
2023-02-04T04:10:37.558Z,8.43
2023-02-04T04:13:05.813Z,4.90
2023-02-04T04:15:35.358Z,5.93
2023-02-04T04:18:04.702Z,5.55
2023-02-04T04:20:34.968Z,5.70
2023-02-04T04:23:03.416Z,7.38
2023-02-04T04:25:31.702Z,9.57
2023-02-04T04:28:00.508Z,7.70
2023-02-04T04:30:28.956Z,5.90
2023-02-04T04:32:57.290Z,6.05
2023-02-04T04:35:25.703Z,7.95
2023-02-04T04:37:55.539Z,6.57
2023-02-04T04:40:23.914Z,6.40
2023-02-04T04:42:52.419Z,5.85
2023-02-04T04:45:20.998Z,6.00
2023-02-04T04:47:49.495Z,4.45
2023-02-04T04:50:18.222Z,7.10
2023-02-04T04:52:46.520Z,7.80
2023-02-04T04:55:16.409Z,7.00
2023-02-04T04:57:46.418Z,6.45
2023-02-04T05:00:18.496Z,5.72
2023-02-04T05:02:47.439Z,8.20
2023-02-04T05:05:16.425Z,6.93
2023-02-04T05:07:44.657Z,5.47
2023-02-04T05:10:13.059Z,6.22
2023-02-04T05:12:44.434Z,5.38
2023-02-04T05:15:13.116Z,8.30
2023-02-04T05:17:41.508Z,8.15
2023-02-04T05:20:10.900Z,6.93
2023-02-04T05:22:39.211Z,7.97
2023-02-04T05:25:08.265Z,5.75
2023-02-04T05:27:37.347Z,4.65
2023-02-04T05:30:07.627Z,4.47
2023-02-04T05:32:36.830Z,5.88
2023-02-04T05:35:05.890Z,6.18
2023-02-04T05:37:34.251Z,6.63
2023-02-04T05:40:02.511Z,4.10
2023-02-04T05:42:31.575Z,5.60
2023-02-04T05:44:59.892Z,4.72
2023-02-04T05:47:29.762Z,5.45
2023-02-04T05:49:58.074Z,6.95
2023-02-04T05:52:26.696Z,6.22
2023-02-04T05:54:55.382Z,4.32
2023-02-04T05:57:23.920Z,5.93
2023-02-04T05:59:52.507Z,7.05
2023-02-04T06:02:20.946Z,5.28
2023-02-04T06:04:50.679Z,7.50
2023-02-04T06:07:19.131Z,7.05
2023-02-04T06:09:48.007Z,6.25
2023-02-04T06:12:16.449Z,7.13
2023-02-04T06:14:44.775Z,6.22
2023-02-04T06:17:13.139Z,6.05
2023-02-04T06:19:41.370Z,8.07
2023-02-04T06:22:12.101Z,4.30
2023-02-04T06:24:40.414Z,6.10
2023-02-04T06:27:08.965Z,6.90
2023-02-04T06:29:37.398Z,7.72
2023-02-04T06:32:06.222Z,6.75
2023-02-04T06:34:35.131Z,4.45
2023-02-04T06:37:03.820Z,5.13
2023-02-04T06:39:33.469Z,8.27
2023-02-04T06:42:02.022Z,5.22
2023-02-04T06:44:30.282Z,6.25
2023-02-04T06:46:58.650Z,7.15
2023-02-04T06:49:27.069Z,6.70
2023-02-04T06:51:55.646Z,6.53
2023-02-04T06:54:24.354Z,6.05
2023-02-04T06:56:54.590Z,7.60
2023-02-04T06:59:23.641Z,7.47
2023-02-04T07:01:52.692Z,7.53
2023-02-04T07:04:21.400Z,8.95
2023-02-04T07:06:49.648Z,6.70
2023-02-04T07:09:17.990Z,12.15
2023-02-04T07:11:46.364Z,6.38
2023-02-04T07:14:15.956Z,8.57
2023-02-04T07:16:44.627Z,8.07
2023-02-04T07:19:13.532Z,5.85
2023-02-04T07:21:41.780Z,6.95
2023-02-04T07:24:10.465Z,8.02
2023-02-04T07:26:38.759Z,7.35
2023-02-04T07:29:10.281Z,8.38
2023-02-04T07:31:45.413Z,6.63
2023-02-04T07:34:14.041Z,8.07
2023-02-04T07:36:42.642Z,11.98
2023-02-04T07:39:11.630Z,7.95
2023-02-04T07:41:42.410Z,8.27
2023-02-04T07:44:13.624Z,11.38
2023-02-04T07:46:43.529Z,7.13
2023-02-04T07:49:11.875Z,7.97
2023-02-04T07:51:40.290Z,7.97
2023-02-04T07:54:08.606Z,8.00
2023-02-04T07:56:37.052Z,7.68
2023-02-04T07:59:05.448Z,10.48
2023-02-04T08:01:34.184Z,7.30
2023-02-04T08:04:03.963Z,8.48
2023-02-04T08:06:32.202Z,7.40
2023-02-04T08:09:01.088Z,8.23
2023-02-04T08:11:30.229Z,6.93
2023-02-04T08:13:58.522Z,9.32
2023-02-04T08:16:26.945Z,8.73
2023-02-04T08:18:55.193Z,7.93
2023-02-04T08:21:25.133Z,8.23
2023-02-04T08:23:53.688Z,6.22
2023-02-04T08:26:21.947Z,8.18
2023-02-04T08:28:50.640Z,8.48
2023-02-04T08:31:19.730Z,9.60
2023-02-04T08:33:48.122Z,8.65
2023-02-04T08:36:16.614Z,8.10
2023-02-04T08:38:46.386Z,6.45
2023-02-04T08:41:15.822Z,7.22
2023-02-04T08:43:44.034Z,6.38
2023-02-04T08:46:12.422Z,8.02
2023-02-04T08:48:41.238Z,7.15
2023-02-04T08:51:09.540Z,8.07
2023-02-04T08:53:39.393Z,5.43
2023-02-04T08:56:10.658Z,7.70
2023-02-04T08:58:39.827Z,9.10
2023-02-04T09:01:08.723Z,7.53
2023-02-04T09:03:37.621Z,6.28
2023-02-04T09:06:07.218Z,6.95
2023-02-04T09:08:36.995Z,7.77
2023-02-04T09:11:07.175Z,7.90
2023-02-04T09:13:36.862Z,6.88
2023-02-04T09:16:05.494Z,7.82
2023-02-04T09:18:33.949Z,5.65
2023-02-04T09:21:02.266Z,7.45
2023-02-04T09:23:30.690Z,8.30
2023-02-04T09:25:59.361Z,6.47
2023-02-04T09:28:28.176Z,8.13
2023-02-04T09:30:57.919Z,8.68
2023-02-04T09:33:26.440Z,5.95
2023-02-04T09:35:55.322Z,6.82
2023-02-04T09:38:23.658Z,6.60
2023-02-04T09:40:55.594Z,6.57
2023-02-04T09:43:27.657Z,8.27
2023-02-04T09:45:58.743Z,10.02
2023-02-04T09:48:27.697Z,7.32
2023-02-04T09:51:06.024Z,7.30
2023-02-04T09:53:36.335Z,5.65
2023-02-04T09:56:05.773Z,5.70
2023-02-04T09:58:36.595Z,6.50
2023-02-04T10:01:15.314Z,9.15
2023-02-04T10:03:47.685Z,7.47
2023-02-04T10:06:17.550Z,6.72
2023-02-04T10:08:47.592Z,6.40
2023-02-04T10:11:17.633Z,4.13
2023-02-04T10:13:50.391Z,6.10
2023-02-04T10:16:24.094Z,5.68
2023-02-04T10:18:52.765Z,4.03
2023-02-04T10:21:25.806Z,6.18
2023-02-04T10:23:57.389Z,7.05
2023-02-04T10:26:29.671Z,5.60
2023-02-04T10:29:02.608Z,4.53
2023-02-04T10:31:36.200Z,7.03
2023-02-04T10:34:13.871Z,5.07
2023-02-04T10:36:45.222Z,5.97
2023-02-04T10:39:16.809Z,5.63
2023-02-04T10:41:50.312Z,3.70
2023-02-04T10:44:21.318Z,3.03
2023-02-04T10:46:53.174Z,3.30
2023-02-04T10:49:25.221Z,5.60
2023-02-04T10:51:54.258Z,3.22
2023-02-04T10:54:30.927Z,2.00
2023-02-04T10:57:02.111Z,5.60
2023-02-04T10:59:30.924Z,4.70
2023-02-04T11:02:04.057Z,2.75
2023-02-04T11:04:32.851Z,3.00
2023-02-04T11:07:03.541Z,3.58
2023-02-04T11:09:31.960Z,3.88
2023-02-04T11:12:01.001Z,6.05
2023-02-04T11:14:31.283Z,4.40
2023-02-04T11:17:03.508Z,5.00
2023-02-04T11:19:35.445Z,2.45
2023-02-04T11:24:36.462Z,2.80
2023-02-04T11:27:09.227Z,3.40
2023-02-04T11:29:39.321Z,3.30
2023-02-04T11:32:29.232Z,3.17
2023-02-04T11:35:24.799Z,3.33
2023-02-04T11:37:54.586Z,3.00
2023-02-04T11:40:32.497Z,2.47
2023-02-04T11:43:03.553Z,4.53
2023-02-04T11:45:35.343Z,2.78
2023-02-04T11:48:14.391Z,2.95
2023-02-04T11:50:43.021Z,2.92
2023-02-04T11:53:13.170Z,2.72
2023-02-04T11:55:48.103Z,2.30
2023-02-04T11:58:26.282Z,3.47
2023-02-04T12:00:54.880Z,3.65
2023-02-04T12:03:26.969Z,2.22
2023-02-04T12:05:56.279Z,2.70
2023-02-04T12:08:33.666Z,4.10
2023-02-04T12:11:06.497Z,3.88
2023-02-04T12:13:36.179Z,4.10
2023-02-04T12:16:07.640Z,4.20
2023-02-04T12:18:39.256Z,4.82
2023-02-04T12:21:07.945Z,4.53
2023-02-04T12:23:36.371Z,3.55
2023-02-04T12:26:04.759Z,3.30
2023-02-04T12:28:33.365Z,3.22
2023-02-04T12:31:02.071Z,3.65
2023-02-04T12:33:31.068Z,4.25
2023-02-04T12:36:00.733Z,4.22
2023-02-04T12:38:29.100Z,6.10
2023-02-04T12:40:58.486Z,4.15
2023-02-04T12:43:28.408Z,5.70
2023-02-04T12:45:57.211Z,6.18
2023-02-04T12:48:26.186Z,4.38
2023-02-04T12:50:54.916Z,5.75
2023-02-04T12:53:24.899Z,5.50
2023-02-04T12:55:57.797Z,3.75
2023-02-04T12:58:26.453Z,6.05
2023-02-04T13:00:56.380Z,5.95
2023-02-04T13:03:25.530Z,6.45
2023-02-04T13:05:54.698Z,6.25
2023-02-04T13:08:24.530Z,6.22
2023-02-04T13:10:53.176Z,6.70
2023-02-04T13:13:24.288Z,11.32
2023-02-04T13:15:52.583Z,5.00
2023-02-04T13:18:21.131Z,4.70
2023-02-04T13:20:49.574Z,8.13
2023-02-04T13:23:18.282Z,6.45
2023-02-04T13:25:48.072Z,6.13
2023-02-04T13:28:16.929Z,6.53
2023-02-04T13:30:45.911Z,4.55
2023-02-04T13:33:14.271Z,5.88
2023-02-04T13:35:45.291Z,3.80
2023-02-04T13:38:13.771Z,6.18
2023-02-04T13:40:42.370Z,7.20
2023-02-04T13:43:12.249Z,5.32
2023-02-04T13:45:47.444Z,5.30
2023-02-04T13:48:16.883Z,5.28
2023-02-04T13:50:45.373Z,3.53
2023-02-04T13:53:13.787Z,4.97
2023-02-04T13:55:42.103Z,4.80
2023-02-04T13:58:11.835Z,4.28
2023-02-04T14:00:40.392Z,6.30
2023-02-04T14:03:08.932Z,5.10
2023-02-04T14:05:39.476Z,6.28
2023-02-04T14:08:08.146Z,4.13
2023-02-04T14:10:38.770Z,6.38
2023-02-04T14:13:07.650Z,5.60
2023-02-04T14:15:37.975Z,6.25
2023-02-04T14:18:07.058Z,7.15
2023-02-04T14:20:36.033Z,5.47
2023-02-04T14:23:05.368Z,3.42
2023-02-04T14:25:33.845Z,4.43
2023-02-04T14:28:02.624Z,6.75
2023-02-04T14:30:32.006Z,5.47
2023-02-04T14:33:02.024Z,8.07
2023-02-04T14:35:30.471Z,8.48
2023-02-04T14:37:59.001Z,8.52
2023-02-04T14:40:27.249Z,7.47
2023-02-04T14:42:55.689Z,6.45
2023-02-04T14:45:24.364Z,9.35
2023-02-04T14:47:57.079Z,9.52
2023-02-04T14:50:28.727Z,6.85
2023-02-04T14:52:57.437Z,9.65
2023-02-04T14:55:26.622Z,8.50
2023-02-04T14:57:55.357Z,6.57
2023-02-04T15:00:24.620Z,8.88
2023-02-04T15:02:53.539Z,7.03
2023-02-04T15:05:22.420Z,7.80
2023-02-04T15:07:52.355Z,6.47
2023-02-04T15:10:22.994Z,5.68
2023-02-04T15:12:51.516Z,5.95
2023-02-04T15:15:20.339Z,7.53
2023-02-04T15:17:50.578Z,7.35
2023-02-04T15:20:19.189Z,5.88
2023-02-04T15:22:51.821Z,4.50
2023-02-04T15:25:22.065Z,7.10
2023-02-04T15:27:50.914Z,8.75
2023-02-04T15:30:19.337Z,5.82
2023-02-04T15:32:48.037Z,6.32
2023-02-04T15:35:16.932Z,6.82
2023-02-04T15:37:45.229Z,6.95
2023-02-04T15:40:13.612Z,8.32
2023-02-04T15:42:43.409Z,6.35
2023-02-04T15:45:11.760Z,6.50
2023-02-04T15:47:40.253Z,7.15
2023-02-04T15:50:11.194Z,7.38
2023-02-04T15:52:39.868Z,4.40
2023-02-04T15:55:08.893Z,6.80
2023-02-04T15:57:37.461Z,4.05
2023-02-04T16:00:09.864Z,6.30
2023-02-04T16:02:38.351Z,6.18
2023-02-04T16:05:07.628Z,8.07
2023-02-04T16:07:35.979Z,6.00
2023-02-04T16:10:04.553Z,7.93
2023-02-04T16:12:33.905Z,9.60
2023-02-04T16:15:02.840Z,6.78
2023-02-04T16:17:33.657Z,6.03
2023-02-04T16:20:03.954Z,7.25
2023-02-04T16:22:32.471Z,7.35
2023-02-04T16:25:01.115Z,6.30
2023-02-04T16:27:31.945Z,5.50
2023-02-04T16:30:00.731Z,6.38
2023-02-04T16:32:30.283Z,6.03
2023-02-04T16:35:00.724Z,6.70
2023-02-04T16:37:29.500Z,6.85
2023-02-04T16:39:58.030Z,7.13
2023-02-04T16:42:26.432Z,7.32
2023-02-04T16:44:55.008Z,6.03
2023-02-04T16:47:23.501Z,12.15
2023-02-04T16:49:51.990Z,8.35
2023-02-04T16:52:21.716Z,7.13
2023-02-04T16:54:49.989Z,7.53
2023-02-04T16:57:18.922Z,10.15
2023-02-04T16:59:47.327Z,7.93
2023-02-04T17:02:15.955Z,9.25
2023-02-04T17:04:44.354Z,8.95
2023-02-04T17:07:12.839Z,9.88
2023-02-04T17:09:43.970Z,9.70
2023-02-04T17:12:12.490Z,9.43
2023-02-04T17:14:41.210Z,11.57
2023-02-04T17:17:09.841Z,8.80
2023-02-04T17:19:38.402Z,9.82
2023-02-04T17:22:06.696Z,8.35
2023-02-04T17:24:36.377Z,9.18
2023-02-04T17:27:06.072Z,11.13
2023-02-04T17:29:35.018Z,7.70
2023-02-04T17:32:03.480Z,7.90
2023-02-04T17:34:31.891Z,9.10
2023-02-04T17:37:00.416Z,9.32
2023-02-04T17:39:29.300Z,7.22
2023-02-04T17:41:58.032Z,10.40
2023-02-04T17:44:28.579Z,9.02
2023-02-04T17:47:07.311Z,7.68
2023-02-04T17:49:36.305Z,9.48
2023-02-04T17:52:04.752Z,9.70
2023-02-04T17:54:33.243Z,8.80
2023-02-04T17:57:14.718Z,9.68
2023-02-04T17:59:44.500Z,8.57
2023-02-04T18:02:24.709Z,9.05
2023-02-04T18:04:55.424Z,9.43
2023-02-04T18:07:24.268Z,8.38
2023-02-04T18:09:52.913Z,12.75
2023-02-04T18:12:21.682Z,9.85
2023-02-04T18:14:51.385Z,13.90
2023-02-04T18:17:20.217Z,8.30
2023-02-04T18:19:48.775Z,10.57
2023-02-04T18:22:19.124Z,12.25
2023-02-04T18:24:49.097Z,11.60
2023-02-04T18:27:24.120Z,11.57
2023-02-04T18:29:56.001Z,12.15
2023-02-04T18:32:27.136Z,13.75
2023-02-04T18:34:59.515Z,10.70
2023-02-04T18:37:31.092Z,13.60
2023-02-04T18:40:23.630Z,12.38
2023-02-04T18:43:02.627Z,11.77
2023-02-04T18:45:33.723Z,12.98
2023-02-04T18:48:22.910Z,11.48
2023-02-04T18:50:54.262Z,10.02
2023-02-04T18:53:25.325Z,11.93
2023-02-04T18:55:58.012Z,12.95
2023-02-04T18:58:31.306Z,10.38
2023-02-04T19:01:03.672Z,11.95
2023-02-04T19:03:37.654Z,12.75
2023-02-04T19:06:25.351Z,10.82
2023-02-04T19:08:55.532Z,12.05
2023-02-04T19:11:37.224Z,11.30
2023-02-04T19:14:19.706Z,10.60
2023-02-04T19:16:52.775Z,9.88
2023-02-04T19:19:35.318Z,10.40
2023-02-04T19:22:17.345Z,10.38
2023-02-04T19:24:46.583Z,9.05
2023-02-04T19:27:29.357Z,8.73
2023-02-04T19:29:59.768Z,11.40
2023-02-04T19:32:38.850Z,12.70
2023-02-04T19:35:18.381Z,12.30
2023-02-04T19:37:51.506Z,14.43
2023-02-04T19:40:31.181Z,10.32
2023-02-04T19:43:17.498Z,9.70
2023-02-04T19:45:47.084Z,8.40
2023-02-04T19:48:23.084Z,12.25
2023-02-04T19:50:53.920Z,11.18
2023-02-04T19:53:24.926Z,9.52
2023-02-04T19:58:25.742Z,12.02
2023-02-04T20:00:59.966Z,12.53
2023-02-04T20:03:36.944Z,14.13
2023-02-04T20:06:36.807Z,10.13
2023-02-04T20:09:12.014Z,11.20
2023-02-04T20:11:54.160Z,10.95
2023-02-04T20:14:50.207Z,11.48
2023-02-04T20:17:40.219Z,13.48
2023-02-04T20:20:28.627Z,14.70
2023-02-04T20:22:58.204Z,10.80
2023-02-04T20:25:39.722Z,11.93
2023-02-04T20:28:30.240Z,13.80
2023-02-04T20:31:02.644Z,12.52
2023-02-04T20:33:35.106Z,12.65
2023-02-04T20:36:36.295Z,12.05
2023-02-04T20:39:27.924Z,12.82
2023-02-04T20:42:16.153Z,13.02
2023-02-04T20:44:47.027Z,10.93
2023-02-04T20:47:19.750Z,10.20
2023-02-04T20:49:56.338Z,11.50
2023-02-04T20:53:02.239Z,9.82
2023-02-04T20:55:34.247Z,14.05
2023-02-04T20:58:17.016Z,10.90
2023-02-04T21:00:48.787Z,9.75
2023-02-04T21:03:27.120Z,11.43
2023-02-04T21:05:58.396Z,11.70
2023-02-04T21:10:59.656Z,13.45
2023-02-04T21:13:28.020Z,11.63
2023-02-04T21:15:56.748Z,13.65
2023-02-04T21:18:25.185Z,14.32
2023-02-04T21:20:53.610Z,22.55
2023-02-04T21:23:21.986Z,14.52
2023-02-04T21:25:50.552Z,17.63
2023-02-04T21:28:20.449Z,20.80
2023-02-04T21:30:49.191Z,13.60
2023-02-04T21:33:18.300Z,17.90
2023-02-04T21:35:47.031Z,13.35
2023-02-04T21:38:16.037Z,13.75
2023-02-04T21:40:44.403Z,17.85
2023-02-04T21:43:13.262Z,12.43
2023-02-04T21:45:43.168Z,12.52
2023-02-04T21:48:11.515Z,12.40
2023-02-04T21:50:40.015Z,14.90
2023-02-04T21:53:09.435Z,14.40
2023-02-04T21:55:38.510Z,13.80
2023-02-04T21:58:07.912Z,19.55
2023-02-04T22:00:37.023Z,18.58
2023-02-04T22:03:10.436Z,13.40
2023-02-04T22:05:38.788Z,13.70
2023-02-04T22:08:07.538Z,12.27
2023-02-04T22:10:36.707Z,13.70
2023-02-04T22:13:05.440Z,11.73
2023-02-04T22:15:34.060Z,14.15
2023-02-04T22:18:02.574Z,13.75
2023-02-04T22:20:32.393Z,14.98
2023-02-04T22:23:00.813Z,12.57
2023-02-04T22:25:29.135Z,11.38
2023-02-04T22:27:57.698Z,12.38
2023-02-04T22:30:26.337Z,11.10
2023-02-04T22:32:55.938Z,16.73
2023-02-04T22:35:24.369Z,16.88
2023-02-04T22:37:54.145Z,11.07
2023-02-04T22:40:22.714Z,13.38
2023-02-04T22:42:52.155Z,14.38
2023-02-04T22:45:20.543Z,14.60
2023-02-04T22:47:48.976Z,13.32
2023-02-04T22:50:18.400Z,14.02
2023-02-04T22:52:47.510Z,14.88
2023-02-04T22:55:17.551Z,16.33
2023-02-04T22:57:46.354Z,15.30
2023-02-04T23:00:16.147Z,16.17
2023-02-04T23:02:44.561Z,14.90
2023-02-04T23:05:13.254Z,11.90
2023-02-04T23:07:41.442Z,12.90
2023-02-04T23:10:10.139Z,16.92
2023-02-04T23:12:40.001Z,14.65
2023-02-04T23:15:09.145Z,18.10
2023-02-04T23:17:37.406Z,13.13
2023-02-04T23:20:06.742Z,14.98
2023-02-04T23:22:35.221Z,11.20
2023-02-04T23:25:06.206Z,14.40
2023-02-04T23:27:35.005Z,16.20
2023-02-04T23:30:06.417Z,15.35
2023-02-04T23:32:34.718Z,12.55
2023-02-04T23:35:03.282Z,16.40
2023-02-04T23:37:32.436Z,13.63
2023-02-04T23:40:01.054Z,13.90
2023-02-04T23:42:31.900Z,14.45
2023-02-04T23:45:00.240Z,13.05
2023-02-04T23:47:30.093Z,15.65
2023-02-04T23:49:58.474Z,14.82
2023-02-04T23:52:26.932Z,14.35
2023-02-04T23:54:55.321Z,14.95
2023-02-04T23:57:24.431Z,16.42
2023-02-04T23:59:52.794Z,14.73
